createdAt,value
2022-09-23T00:00:26.770Z,99.90
2022-09-23T00:03:12.814Z,99.90
2022-09-23T00:06:00.020Z,99.90
2022-09-23T00:08:46.276Z,99.90
2022-09-23T00:11:31.678Z,99.90
2022-09-23T00:14:17.627Z,99.90
2022-09-23T00:17:03.221Z,99.90
2022-09-23T00:19:48.819Z,99.90
2022-09-23T00:22:34.185Z,99.90
2022-09-23T00:25:19.731Z,99.90
2022-09-23T00:28:06.088Z,99.90
2022-09-23T00:30:52.036Z,99.90
2022-09-23T00:33:37.437Z,99.90
2022-09-23T00:36:23.102Z,99.90
2022-09-23T00:39:09.624Z,99.90
2022-09-23T00:41:55.304Z,99.90
2022-09-23T00:44:49.997Z,99.90
2022-09-23T00:47:48.182Z,99.90
2022-09-23T00:50:39.561Z,99.90
2022-09-23T00:53:26.726Z,99.90
2022-09-23T00:56:13.657Z,99.90
2022-09-23T00:59:00.253Z,99.90
2022-09-23T01:01:46.513Z,99.90
2022-09-23T01:04:32.457Z,99.90
2022-09-23T01:07:18.678Z,99.90
2022-09-23T01:10:05.591Z,99.90
2022-09-23T01:13:13.220Z,99.90
2022-09-23T01:16:11.509Z,99.90
2022-09-23T01:19:28.040Z,99.90
2022-09-23T01:22:33.694Z,99.90
2022-09-23T01:25:26.980Z,99.90
2022-09-23T01:28:40.246Z,99.90
2022-09-23T01:31:47.747Z,99.90
2022-09-23T01:34:47.198Z,99.90
2022-09-23T01:37:57.784Z,99.90
2022-09-23T01:40:52.266Z,99.90
2022-09-23T01:43:44.915Z,99.90
2022-09-23T01:46:39.819Z,99.90
2022-09-23T01:49:38.724Z,99.90
2022-09-23T01:52:47.261Z,99.90
2022-09-23T01:55:36.500Z,99.90
2022-09-23T01:58:30.538Z,99.90
2022-09-23T02:01:21.638Z,99.90
2022-09-23T02:04:17.513Z,99.90
2022-09-23T02:07:09.386Z,99.90
2022-09-23T02:10:10.731Z,99.90
2022-09-23T02:13:05.421Z,99.90
2022-09-23T02:15:55.975Z,99.90
2022-09-23T02:18:52.350Z,99.90
2022-09-23T02:21:44.622Z,99.90
2022-09-23T02:24:34.991Z,99.90
2022-09-23T02:27:23.479Z,99.90
2022-09-23T02:30:20.171Z,99.90
2022-09-23T02:33:12.532Z,99.90
2022-09-23T02:36:06.907Z,99.90
2022-09-23T02:39:03.777Z,99.90
2022-09-23T02:41:59.395Z,99.90
2022-09-23T02:44:44.901Z,99.90
2022-09-23T02:47:35.022Z,99.90
2022-09-23T02:50:22.281Z,99.90
2022-09-23T02:53:08.086Z,99.90
2022-09-23T02:55:53.927Z,99.90
2022-09-23T02:58:39.725Z,99.90
2022-09-23T03:01:52.500Z,99.90
2022-09-23T03:04:47.410Z,99.90
2022-09-23T03:07:51.978Z,99.90
2022-09-23T03:10:55.959Z,99.90
2022-09-23T03:14:06.738Z,99.90
2022-09-23T03:17:03.664Z,99.90
2022-09-23T03:20:04.456Z,99.90
2022-09-23T03:22:54.663Z,99.90
2022-09-23T03:25:43.165Z,99.90
2022-09-23T03:28:29.778Z,99.90
2022-09-23T03:31:16.319Z,99.90
2022-09-23T03:34:05.468Z,99.90
2022-09-23T03:37:20.031Z,99.90
2022-09-23T03:40:41.853Z,99.90
2022-09-23T03:43:26.961Z,99.90
2022-09-23T03:46:15.460Z,99.90
2022-09-23T03:49:16.917Z,99.90
2022-09-23T03:52:03.472Z,99.90
2022-09-23T03:54:51.120Z,99.90
2022-09-23T03:57:37.822Z,99.90
2022-09-23T04:00:23.531Z,99.90
2022-09-23T04:03:11.741Z,99.90
2022-09-23T04:05:57.711Z,99.90
2022-09-23T04:08:43.426Z,99.90
2022-09-23T04:11:29.135Z,99.90
2022-09-23T04:14:15.173Z,99.90
2022-09-23T04:17:00.522Z,99.90
2022-09-23T04:19:45.777Z,99.90
2022-09-23T04:22:33.459Z,99.90
2022-09-23T04:25:18.633Z,99.90
2022-09-23T04:28:04.323Z,99.90
2022-09-23T04:30:49.833Z,99.90
2022-09-23T04:33:36.216Z,99.90
2022-09-23T04:36:21.894Z,99.90
2022-09-23T04:39:07.836Z,99.90
2022-09-23T04:41:53.590Z,99.90
2022-09-23T04:44:39.763Z,99.90
2022-09-23T04:47:24.948Z,99.90
2022-09-23T04:50:10.536Z,99.90
2022-09-23T04:52:56.203Z,99.90
2022-09-23T04:55:42.493Z,99.90
2022-09-23T04:58:28.230Z,99.90
2022-09-23T05:01:19.809Z,99.90
2022-09-23T05:04:11.004Z,99.90
2022-09-23T05:07:00.828Z,99.90
2022-09-23T05:09:48.611Z,99.90
2022-09-23T05:12:34.068Z,99.90
2022-09-23T05:15:21.406Z,99.90
2022-09-23T05:18:06.904Z,99.90
2022-09-23T05:20:55.741Z,99.90
2022-09-23T05:23:41.972Z,99.90
2022-09-23T05:26:30.527Z,99.90
2022-09-23T05:29:15.968Z,99.90
2022-09-23T05:32:01.756Z,99.90
2022-09-23T05:34:47.160Z,99.90
2022-09-23T05:37:33.085Z,99.90
2022-09-23T05:40:18.732Z,99.90
2022-09-23T05:43:04.454Z,99.90
2022-09-23T05:45:50.127Z,99.90
2022-09-23T05:48:36.498Z,99.90
2022-09-23T05:51:28.783Z,99.90
2022-09-23T05:54:16.282Z,99.90
2022-09-23T05:57:04.861Z,99.90
2022-09-23T05:59:50.317Z,99.90
2022-09-23T06:02:35.948Z,99.90
2022-09-23T06:05:21.471Z,99.90
2022-09-23T06:08:08.188Z,99.90
2022-09-23T06:10:54.688Z,99.90
2022-09-23T06:13:41.399Z,99.90
2022-09-23T06:16:27.860Z,99.90
2022-09-23T06:19:13.320Z,99.90
2022-09-23T06:21:58.689Z,99.90
2022-09-23T06:24:44.422Z,99.90
2022-09-23T06:27:29.721Z,99.90
2022-09-23T06:30:17.280Z,99.90
2022-09-23T06:33:02.822Z,99.90
2022-09-23T06:35:57.685Z,99.90
2022-09-23T06:38:44.821Z,99.90
2022-09-23T06:41:30.888Z,99.90
2022-09-23T06:44:16.343Z,99.90
2022-09-23T06:47:01.907Z,99.90
2022-09-23T06:49:47.404Z,99.90
2022-09-23T06:52:33.054Z,99.90
2022-09-23T06:55:20.817Z,99.90
2022-09-23T06:58:06.559Z,99.90
2022-09-23T07:00:51.805Z,99.90
2022-09-23T07:03:38.327Z,99.90
2022-09-23T07:06:24.227Z,99.90
2022-09-23T07:09:11.019Z,99.90
2022-09-23T07:11:56.341Z,99.90
2022-09-23T07:14:41.864Z,99.90
2022-09-23T07:17:27.425Z,99.90
2022-09-23T07:20:13.207Z,99.90
2022-09-23T07:22:58.212Z,99.90
2022-09-23T07:25:44.565Z,99.90
2022-09-23T07:28:30.041Z,99.90
2022-09-23T07:31:31.367Z,99.90
2022-09-23T07:34:20.426Z,99.90
2022-09-23T07:37:06.144Z,99.90
2022-09-23T07:39:51.708Z,99.90
2022-09-23T07:42:38.556Z,99.90
2022-09-23T07:45:23.582Z,99.90
2022-09-23T07:48:09.378Z,99.90
2022-09-23T07:50:54.804Z,99.90
2022-09-23T07:53:40.476Z,99.90
2022-09-23T07:56:27.912Z,99.90
2022-09-23T07:59:16.917Z,99.90
2022-09-23T08:02:02.165Z,99.90
2022-09-23T08:04:49.840Z,99.90
2022-09-23T08:07:35.476Z,99.90
2022-09-23T08:10:21.097Z,99.90
2022-09-23T08:13:06.272Z,99.90
2022-09-23T08:15:55.327Z,99.90
2022-09-23T08:18:44.180Z,99.90
2022-09-23T08:21:29.866Z,99.90
2022-09-23T08:24:17.656Z,99.90
2022-09-23T08:27:03.099Z,99.90
2022-09-23T08:29:48.717Z,99.90
2022-09-23T08:32:34.330Z,99.90
2022-09-23T08:35:20.458Z,99.90
2022-09-23T08:38:06.636Z,99.90
2022-09-23T08:40:55.676Z,99.90
2022-09-23T08:43:50.740Z,99.90
2022-09-23T08:46:52.649Z,99.90
2022-09-23T08:49:55.508Z,99.90
2022-09-23T08:52:43.820Z,99.90
2022-09-23T08:55:43.609Z,99.90
2022-09-23T08:59:09.689Z,99.90
2022-09-23T09:02:11.283Z,99.90
2022-09-23T09:05:05.474Z,99.90
2022-09-23T09:07:51.720Z,99.90
2022-09-23T09:10:44.862Z,99.90
2022-09-23T09:13:48.619Z,99.90
2022-09-23T09:17:00.450Z,99.90
2022-09-23T09:20:23.861Z,99.90
2022-09-23T09:23:22.733Z,99.90
2022-09-23T09:26:15.433Z,99.90
2022-09-23T09:29:36.087Z,99.90
2022-09-23T09:32:33.849Z,99.90
2022-09-23T09:35:50.412Z,99.40
2022-09-23T09:38:36.963Z,99.40
2022-09-23T09:41:24.644Z,99.30
2022-09-23T09:44:31.722Z,99.00
2022-09-23T09:47:28.383Z,99.10
2022-09-23T09:50:22.158Z,98.50
2022-09-23T09:53:27.525Z,97.70
2022-09-23T09:56:14.825Z,96.40
2022-09-23T09:59:13.797Z,95.80
2022-09-23T10:02:22.489Z,95.70
2022-09-23T10:05:08.090Z,96.40
2022-09-23T10:07:54.559Z,95.00
2022-09-23T10:10:59.444Z,94.90
2022-09-23T10:14:17.885Z,95.70
2022-09-23T10:17:06.203Z,95.70
2022-09-23T10:20:00.271Z,94.90
2022-09-23T10:22:46.494Z,93.60
2022-09-23T10:25:34.636Z,94.20
2022-09-23T10:28:38.306Z,93.50
2022-09-23T10:31:26.845Z,93.00
2022-09-23T10:34:27.262Z,93.80
2022-09-23T10:37:20.451Z,93.80
2022-09-23T10:40:32.894Z,93.70
2022-09-23T10:43:47.150Z,93.80
2022-09-23T10:46:45.924Z,92.30
2022-09-23T10:49:33.871Z,92.40
2022-09-23T10:52:36.049Z,93.80
2022-09-23T10:55:33.431Z,93.20
2022-09-23T10:58:36.638Z,92.50
2022-09-23T11:01:40.343Z,91.30
2022-09-23T11:04:59.672Z,91.40
2022-09-23T11:08:04.188Z,91.40
2022-09-23T11:11:14.593Z,90.20
2022-09-23T11:14:24.349Z,90.20
2022-09-23T11:17:34.645Z,90.40
2022-09-23T11:20:26.055Z,88.70
2022-09-23T11:23:37.107Z,89.20
2022-09-23T11:26:54.072Z,90.50
2022-09-23T11:29:51.438Z,89.50
2022-09-23T11:32:42.549Z,89.70
2022-09-23T11:35:39.089Z,87.30
2022-09-23T11:38:33.917Z,89.20
2022-09-23T11:41:32.911Z,87.20
2022-09-23T11:44:29.408Z,88.40
2022-09-23T11:47:22.625Z,87.10
2022-09-23T11:50:29.507Z,86.00
2022-09-23T11:53:40.948Z,83.50
2022-09-23T11:56:36.236Z,82.40
2022-09-23T11:59:39.521Z,84.70
2022-09-23T12:03:03.259Z,86.90
2022-09-23T12:06:09.084Z,84.70
2022-09-23T12:09:00.702Z,84.70
2022-09-23T12:12:16.708Z,85.40
2022-09-23T12:15:17.558Z,85.80
2022-09-23T12:18:18.446Z,86.40
2022-09-23T12:21:50.763Z,83.90
2022-09-23T12:24:57.385Z,84.40
2022-09-23T12:27:45.727Z,85.70
2022-09-23T12:30:34.537Z,84.20
2022-09-23T12:33:28.419Z,83.30
2022-09-23T12:36:13.819Z,84.50
2022-09-23T12:39:19.605Z,85.40
2022-09-23T12:42:14.499Z,86.70
2022-09-23T12:45:35.249Z,85.80
2022-09-23T12:48:20.884Z,87.50
2022-09-23T12:51:16.556Z,87.00
2022-09-23T12:54:22.417Z,86.60
2022-09-23T12:57:13.031Z,85.80
2022-09-23T13:00:12.971Z,87.80
2022-09-23T13:03:18.954Z,88.00
2022-09-23T13:06:26.943Z,86.00
2022-09-23T13:09:21.151Z,86.40
2022-09-23T13:12:13.304Z,86.70
2022-09-23T13:15:03.757Z,86.10
2022-09-23T13:17:49.256Z,85.50
2022-09-23T13:20:38.403Z,84.70
2022-09-23T13:23:30.353Z,86.20
2022-09-23T13:26:15.995Z,85.10
2022-09-23T13:29:02.520Z,87.60
2022-09-23T13:31:48.104Z,86.30
2022-09-23T13:34:36.851Z,85.00
2022-09-23T13:37:26.032Z,87.70
2022-09-23T13:40:19.083Z,86.70
2022-09-23T13:43:18.209Z,87.00
2022-09-23T13:46:08.227Z,84.30
2022-09-23T13:48:55.409Z,86.40
2022-09-23T13:51:45.077Z,85.50
2022-09-23T13:54:35.433Z,84.30
2022-09-23T13:57:30.369Z,83.20
2022-09-23T14:00:16.309Z,84.80
2022-09-23T14:03:03.170Z,84.60
2022-09-23T14:05:48.939Z,84.80
2022-09-23T14:08:34.352Z,87.20
2022-09-23T14:11:29.851Z,84.00
2022-09-23T14:14:15.843Z,85.70
2022-09-23T14:17:02.657Z,82.40
2022-09-23T14:19:48.409Z,81.40
2022-09-23T14:22:33.826Z,83.90
2022-09-23T14:25:19.828Z,79.70
2022-09-23T14:28:05.433Z,81.40
2022-09-23T14:30:57.979Z,82.80
2022-09-23T14:33:43.461Z,82.40
2022-09-23T14:36:55.021Z,83.50
2022-09-23T14:39:40.478Z,83.90
2022-09-23T14:42:26.074Z,84.60
2022-09-23T14:45:20.741Z,82.80
2022-09-23T14:48:16.798Z,83.60
2022-09-23T14:51:10.961Z,84.50
2022-09-23T14:54:28.279Z,83.40
2022-09-23T14:57:23.200Z,82.70
2022-09-23T15:00:17.562Z,82.10
2022-09-23T15:03:10.694Z,83.20
2022-09-23T15:06:07.688Z,83.60
2022-09-23T15:08:55.842Z,83.40
2022-09-23T15:11:41.381Z,84.00
2022-09-23T15:14:44.868Z,85.70
2022-09-23T15:17:35.090Z,87.20
2022-09-23T15:20:24.286Z,84.40
2022-09-23T15:23:41.633Z,87.90
2022-09-23T15:26:45.315Z,90.00
2022-09-23T15:29:33.681Z,90.80
2022-09-23T15:32:19.585Z,90.90
2022-09-23T15:35:05.988Z,91.30
2022-09-23T15:37:54.017Z,91.70
2022-09-23T15:40:40.349Z,92.40
2022-09-23T15:43:27.016Z,91.80
2022-09-23T15:46:19.532Z,92.60
2022-09-23T15:49:12.775Z,92.90
2022-09-23T15:52:00.850Z,92.80
2022-09-23T15:54:46.329Z,92.50
2022-09-23T15:57:31.640Z,92.80
2022-09-23T16:00:17.444Z,92.80
2022-09-23T16:03:04.188Z,93.10
2022-09-23T16:05:50.282Z,93.40
2022-09-23T16:08:36.043Z,93.60
2022-09-23T16:11:24.424Z,93.20
2022-09-23T16:14:19.608Z,93.30
2022-09-23T16:17:05.124Z,93.80
2022-09-23T16:19:50.449Z,94.10
2022-09-23T16:22:36.406Z,94.50
2022-09-23T16:25:27.243Z,94.00
2022-09-23T16:28:12.362Z,94.10
2022-09-23T16:30:58.175Z,94.00
2022-09-23T16:33:44.643Z,94.40
2022-09-23T16:36:41.976Z,94.80
2022-09-23T16:39:27.340Z,94.70
2022-09-23T16:42:13.368Z,95.00
2022-09-23T16:44:58.980Z,95.20
2022-09-23T16:47:45.453Z,95.20
2022-09-23T16:50:31.902Z,95.20
2022-09-23T16:53:17.756Z,95.20
2022-09-23T16:56:11.090Z,95.20
2022-09-23T16:58:56.866Z,95.40
2022-09-23T17:02:01.207Z,95.80
2022-09-23T17:04:46.682Z,95.50
2022-09-23T17:07:32.235Z,95.70
2022-09-23T17:10:18.892Z,95.80
2022-09-23T17:13:04.761Z,96.40
2022-09-23T17:15:50.499Z,96.20
2022-09-23T17:18:35.766Z,96.20
2022-09-23T17:21:21.191Z,96.30
2022-09-23T17:24:07.270Z,96.30
2022-09-23T17:26:53.440Z,96.40
2022-09-23T17:29:38.828Z,96.50
2022-09-23T17:32:24.982Z,96.80
2022-09-23T17:35:11.822Z,97.10
2022-09-23T17:37:57.047Z,96.90
2022-09-23T17:40:50.129Z,96.80
2022-09-23T17:43:36.229Z,97.10
2022-09-23T17:46:21.857Z,97.10
2022-09-23T17:49:08.484Z,97.30
2022-09-23T17:51:54.020Z,97.30
2022-09-23T17:54:39.209Z,97.40
2022-09-23T17:57:24.940Z,97.60
2022-09-23T18:00:11.340Z,97.80
2022-09-23T18:02:56.681Z,97.90
2022-09-23T18:05:42.226Z,98.10
2022-09-23T18:08:30.949Z,98.60
2022-09-23T18:11:22.566Z,98.80
2022-09-23T18:14:13.956Z,98.90
2022-09-23T18:16:59.538Z,98.90
2022-09-23T18:19:49.378Z,98.80
2022-09-23T18:22:34.601Z,99.00
2022-09-23T18:25:38.034Z,99.40
2022-09-23T18:28:24.930Z,99.80
2022-09-23T18:31:11.461Z,99.90
2022-09-23T18:33:58.145Z,99.90
2022-09-23T18:36:43.883Z,99.90
2022-09-23T18:39:29.453Z,99.90
2022-09-23T18:42:15.343Z,99.90
2022-09-23T18:45:00.652Z,99.90
2022-09-23T18:48:04.889Z,99.90
2022-09-23T18:50:51.819Z,99.90
2022-09-23T18:53:37.837Z,99.90
2022-09-23T18:56:24.636Z,99.90
2022-09-23T18:59:14.639Z,99.90
2022-09-23T19:02:00.407Z,99.90
2022-09-23T19:04:45.744Z,99.90
2022-09-23T19:07:31.179Z,99.90
2022-09-23T19:10:16.996Z,99.90
2022-09-23T19:13:02.269Z,99.90
2022-09-23T19:15:48.394Z,99.90
2022-09-23T19:18:34.029Z,99.90
2022-09-23T19:21:21.978Z,99.90
2022-09-23T19:24:08.208Z,99.90
2022-09-23T19:26:54.727Z,99.90
2022-09-23T19:29:41.689Z,99.90
2022-09-23T19:32:27.358Z,99.90
2022-09-23T19:35:15.954Z,99.90
2022-09-23T19:38:01.808Z,99.90
2022-09-23T19:40:52.206Z,99.90
2022-09-23T19:43:38.051Z,99.90
2022-09-23T19:46:23.669Z,99.90
2022-09-23T19:49:09.299Z,99.90
2022-09-23T19:51:56.073Z,99.90
2022-09-23T19:54:41.623Z,99.90
2022-09-23T19:57:29.655Z,99.90
2022-09-23T20:00:15.351Z,99.90
2022-09-23T20:03:00.772Z,99.90
2022-09-23T20:05:57.298Z,99.90
2022-09-23T20:08:43.662Z,99.90
2022-09-23T20:11:29.296Z,99.90
2022-09-23T20:14:14.480Z,99.90
2022-09-23T20:17:00.369Z,99.90
2022-09-23T20:19:45.652Z,99.90
2022-09-23T20:22:34.078Z,99.90
2022-09-23T20:25:19.301Z,99.90
2022-09-23T20:28:05.771Z,99.90
2022-09-23T20:30:52.180Z,99.90
2022-09-23T20:33:38.422Z,99.90
2022-09-23T20:36:25.771Z,99.90
2022-09-23T20:39:11.408Z,99.90
2022-09-23T20:41:57.283Z,99.90
2022-09-23T20:44:44.885Z,99.90
2022-09-23T20:47:30.350Z,99.90
2022-09-23T20:50:15.870Z,99.90
2022-09-23T20:53:01.291Z,99.90
2022-09-23T20:55:54.812Z,99.90
2022-09-23T20:58:40.587Z,99.90
2022-09-23T21:01:27.632Z,99.90
2022-09-23T21:04:13.252Z,99.90
2022-09-23T21:06:59.348Z,99.90
2022-09-23T21:09:44.812Z,99.90
2022-09-23T21:12:31.636Z,99.90
2022-09-23T21:15:18.245Z,99.90
2022-09-23T21:18:03.684Z,99.90
2022-09-23T21:20:56.207Z,99.90
2022-09-23T21:23:43.335Z,99.90
2022-09-23T21:26:28.980Z,99.90
2022-09-23T21:29:14.626Z,99.90
2022-09-23T21:32:00.254Z,99.90
2022-09-23T21:34:46.022Z,99.90
2022-09-23T21:37:31.554Z,99.90
2022-09-23T21:40:35.505Z,99.90
2022-09-23T21:43:20.791Z,99.90
2022-09-23T21:46:11.741Z,99.90
2022-09-23T21:49:02.225Z,99.90
2022-09-23T21:51:47.668Z,99.90
2022-09-23T21:54:33.016Z,99.90
2022-09-23T21:57:18.676Z,99.90
2022-09-23T22:00:09.341Z,99.90
2022-09-23T22:02:54.923Z,99.90
2022-09-23T22:05:43.232Z,99.90
2022-09-23T22:08:33.170Z,99.90
2022-09-23T22:11:39.301Z,99.90
2022-09-23T22:14:26.451Z,99.90
2022-09-23T22:17:14.558Z,99.90
2022-09-23T22:19:59.873Z,99.90
2022-09-23T22:22:45.542Z,99.90
2022-09-23T22:25:33.185Z,99.90
2022-09-23T22:28:36.801Z,99.90
2022-09-23T22:31:41.162Z,99.90
2022-09-23T22:34:48.545Z,99.90
2022-09-23T22:37:35.157Z,99.90
2022-09-23T22:40:20.728Z,99.90
2022-09-23T22:43:06.142Z,99.90
2022-09-23T22:45:52.059Z,99.90
2022-09-23T22:48:37.297Z,99.90
2022-09-23T22:51:22.953Z,99.90
2022-09-23T22:54:09.139Z,99.90
2022-09-23T22:56:54.942Z,99.90
2022-09-23T22:59:40.198Z,99.90
2022-09-23T23:02:25.760Z,99.90
2022-09-23T23:05:11.597Z,99.90
2022-09-23T23:07:57.570Z,99.90
2022-09-23T23:10:43.707Z,99.90
2022-09-23T23:13:33.510Z,99.90
2022-09-23T23:16:18.853Z,99.90
2022-09-23T23:19:06.819Z,99.90
2022-09-23T23:21:52.454Z,99.90
2022-09-23T23:24:37.938Z,99.90
2022-09-23T23:27:23.555Z,99.90
2022-09-23T23:30:09.605Z,99.90
2022-09-23T23:32:55.061Z,99.90
2022-09-23T23:35:49.609Z,99.90
2022-09-23T23:38:36.886Z,99.90
2022-09-23T23:41:23.349Z,99.90
2022-09-23T23:44:09.105Z,99.90
2022-09-23T23:46:54.891Z,99.90
2022-09-23T23:49:40.778Z,99.90
2022-09-23T23:52:25.994Z,99.90
2022-09-23T23:55:11.571Z,99.90
2022-09-23T23:58:03.314Z,99.90
